Time;durP1;ratioP1;P1;durP2;ratioP2;P2;SDS_P1;SDS_P2;PMS_P1;PMS_P2;Temp;Humidity;BMP_temperature;BMP_pressure;BME280_temperature;BME280_humidity;BME280_pressure;Samples;Min_cycle;Max_cycle;Signal;HPM_P1;HPM_P2
2022/09/02 00:01:36;;;;;;;3.93;1.60;;;15.70;99.90;;;;;;5039717;28;20233;-86
2022/09/02 00:04:11;;;;;;;1.93;1.77;;;15.80;99.90;;;;;;5045650;28;20214;-83
2022/09/02 00:06:40;;;;;;;2.03;1.83;;;15.40;99.90;;;;;;5053835;28;20296;-84
2022/09/02 00:09:10;;;;;;;2.27;1.70;;;15.70;99.90;;;;;;5033077;28;20201;-84
2022/09/02 00:11:39;;;;;;;2.03;1.93;;;16.50;99.90;;;;;;5046558;28;20210;-85
2022/09/02 00:14:09;;;;;;;3.20;1.93;;;15.80;99.90;;;;;;5042371;28;20225;-84
2022/09/02 00:16:38;;;;;;;3.70;1.77;;;15.60;99.90;;;;;;5031026;28;20233;-83
2022/09/02 00:19:06;;;;;;;4.00;1.93;;;16.90;99.90;;;;;;5026732;28;20206;-85
2022/09/02 00:21:36;;;;;;;3.13;2.00;;;15.50;99.90;;;;;;5042405;28;20233;-84
2022/09/02 00:24:05;;;;;;;4.30;1.83;;;15.60;99.90;;;;;;5040838;28;20540;-83
2022/09/02 00:26:35;;;;;;;3.03;2.00;;;15.40;99.90;;;;;;5022843;28;20298;-80
2022/09/02 00:29:04;;;;;;;3.00;1.87;;;15.30;99.90;;;;;;5024875;28;20224;-84
2022/09/02 00:31:32;;;;;;;3.53;2.70;;;15.30;99.90;;;;;;5020589;28;20238;-85
2022/09/02 00:34:00;;;;;;;2.23;1.83;;;;;;;;;;5011354;28;20241;-84
2022/09/02 00:36:29;;;;;;;4.03;2.00;;;15.20;99.90;;;;;;5041850;28;20229;-84
2022/09/02 00:38:56;;;;;;;3.03;1.83;;;15.10;99.90;;;;;;5024725;28;20225;-83
2022/09/02 00:41:27;;;;;;;3.77;2.13;;;15.10;99.90;;;;;;5035823;28;20214;-83
2022/09/02 00:44:02;;;;;;;4.97;2.03;;;15.00;99.90;;;;;;5038408;28;20296;-85
2022/09/02 00:46:31;;;;;;;2.13;1.83;;;15.10;99.90;;;;;;5011704;28;20263;-84
2022/09/02 00:49:17;;;;;;;3.80;1.73;;;15.50;99.90;;;;;;5024151;28;20217;-83
2022/09/02 00:51:58;;;;;;;1.80;1.67;;;15.40;99.90;;;;;;5042696;28;20214;-84
2022/09/02 00:54:28;;;;;;;4.07;2.13;;;15.40;99.90;;;;;;5042651;28;20287;-83
2022/09/02 00:56:56;;;;;;;3.50;2.00;;;15.50;99.90;;;;;;5039759;28;20233;-84
2022/09/02 01:00:08;;;;;;;4.77;2.30;;;15.00;99.90;;;;;;5025614;28;20218;-83
2022/09/02 01:02:37;;;;;;;2.67;2.13;;;14.90;99.90;;;;;;5034802;28;20236;-82
2022/09/02 01:05:08;;;;;;;2.20;2.00;;;14.80;99.90;;;;;;5046617;28;20210;-83
2022/09/02 01:07:39;;;;;;;2.73;2.40;;;14.80;99.90;;;;;;5043320;28;20209;-84
2022/09/02 01:10:10;;;;;;;2.40;2.20;;;14.70;99.90;;;;;;5024534;28;20222;-85
2022/09/02 01:12:38;;;;;;;4.53;2.60;;;14.70;99.90;;;;;;5033738;28;20211;-82
2022/09/02 01:15:08;;;;;;;3.50;2.30;;;14.70;99.90;;;;;;5036353;28;20236;-81
2022/09/02 01:17:40;;;;;;;2.77;2.30;;;14.60;99.90;;;;;;5040466;28;20268;-83
2022/09/02 01:20:13;;;;;;;2.83;2.40;;;14.30;99.90;;;;;;5041043;28;20266;-84
2022/09/02 01:22:42;;;;;;;3.93;2.53;;;14.30;99.90;;;;;;5037281;28;20210;-85
2022/09/02 01:25:19;;;;;;;5.73;2.53;;;14.60;99.90;;;;;;5040747;28;20216;-82
2022/09/02 01:27:47;;;;;;;8.13;2.50;;;14.80;99.90;;;;;;5024167;28;20226;-81
2022/09/02 01:30:19;;;;;;;4.60;2.37;;;14.80;99.90;;;;;;5025485;28;20273;-83
2022/09/02 01:32:47;;;;;;;4.57;2.20;;;14.50;99.90;;;;;;5027714;28;20233;-83
2022/09/02 01:35:19;;;;;;;5.87;2.40;;;14.40;99.90;;;;;;5049721;28;20233;-83
2022/09/02 01:37:47;;;;;;;4.73;2.53;;;14.50;99.90;;;;;;5034162;28;20217;-82
2022/09/02 01:40:34;;;;;;;2.27;2.03;;;14.50;99.90;;;;;;5050357;28;20209;-82
2022/09/02 01:43:08;;;;;;;7.03;2.67;;;14.40;99.90;;;;;;5036355;28;20189;-85
2022/09/02 01:45:37;;;;;;;3.00;2.70;;;14.40;99.90;;;;;;5017064;28;20201;-83
2022/09/02 01:48:05;;;;;;;5.53;2.77;;;14.40;99.90;;;;;;5039536;28;20202;-84
2022/09/02 01:50:51;;;;;;;3.20;2.60;;;14.40;99.90;;;;;;5041772;28;20210;-82
2022/09/02 01:53:22;;;;;;;2.93;2.63;;;14.20;99.90;;;;;;5040095;28;20225;-81
2022/09/02 01:55:50;;;;;;;3.33;2.70;;;14.40;99.90;;;;;;5020185;28;20230;-83
2022/09/02 01:58:18;;;;;;;3.10;2.47;;;15.20;99.90;;;;;;5028002;28;20206;-83
2022/09/02 02:00:46;;;;;;;5.93;2.70;;;14.40;99.90;;;;;;5026035;28;20206;-83
2022/09/02 02:03:14;;;;;;;3.10;2.70;;;14.40;99.90;;;;;;5036218;28;20208;-84
2022/09/02 02:05:44;;;;;;;5.43;2.90;;;14.30;99.90;;;;;;5018234;28;20213;-81
2022/09/02 02:08:13;;;;;;;2.73;2.53;;;14.30;99.90;;;;;;5021181;28;20208;-85
2022/09/02 02:10:41;;;;;;;4.13;2.83;;;15.10;99.90;;;;;;5017894;28;20229;-81
2022/09/02 02:13:09;;;;;;;3.87;2.80;;;13.40;99.90;;;;;;5031725;28;20218;-83
2022/09/02 02:15:41;;;;;;;2.57;2.37;;;14.50;99.90;;;;;;5014854;28;20358;-84
2022/09/02 02:18:09;;;;;;;4.70;2.40;;;14.20;99.90;;;;;;5013842;28;20215;-83
2022/09/02 02:20:38;;;;;;;3.73;2.97;;;14.20;99.90;;;;;;5014267;28;20477;-83
2022/09/02 02:23:10;;;;;;;4.27;2.83;;;14.20;99.90;;;;;;5017733;28;20287;-83
2022/09/02 02:25:41;;;;;;;4.03;2.60;;;14.20;99.90;;;;;;5011414;28;20277;-82
2022/09/02 02:28:08;;;;;;;3.13;2.83;;;15.00;99.90;;;;;;5031893;28;20234;-84
2022/09/02 02:30:37;;;;;;;4.10;2.57;;;14.20;99.90;;;;;;5019592;28;20230;-82
2022/09/02 02:33:05;;;;;;;3.03;2.63;;;14.30;99.90;;;;;;5019032;28;20214;-85
2022/09/02 02:35:32;;;;;;;5.63;3.13;;;14.30;99.90;;;;;;5015111;28;20237;-85
2022/09/02 02:38:00;;;;;;;2.80;2.60;;;14.50;99.90;;;;;;5018449;28;20223;-85
2022/09/02 02:40:29;;;;;;;6.83;3.23;;;14.80;99.90;;;;;;5018605;28;20868;-84
2022/09/02 02:42:58;;;;;;;2.90;2.70;;;13.80;99.90;;;;;;5011957;28;20230;-85
2022/09/02 02:45:25;;;;;;;3.00;2.70;;;14.30;99.90;;;;;;5019182;28;20207;-85
2022/09/02 02:48:18;;;;;;;;;;;;;;;;;;;;;
2022/09/02 02:51:06;;;;;;;3.13;2.50;;;14.40;99.90;;;;;;5021000;28;20213;-84
2022/09/02 02:53:42;;;;;;;3.10;2.80;;;14.60;99.90;;;;;;5001612;28;20282;-84
2022/09/02 02:56:13;;;;;;;5.37;2.90;;;14.50;99.90;;;;;;5018841;28;20272;-85
2022/09/02 02:58:43;;;;;;;3.37;3.07;;;14.20;99.90;;;;;;5006841;28;20678;-86
2022/09/02 03:01:10;;;;;;;3.90;2.50;;;13.40;99.90;;;;;;5020050;28;20206;-83
2022/09/02 03:03:47;;;;;;;3.53;2.57;;;14.90;99.90;;;;;;5024779;28;20221;-84
2022/09/02 03:06:17;;;;;;;4.00;2.83;;;14.20;99.90;;;;;;5023057;28;20233;-88
2022/09/02 03:08:52;;;;;;;3.13;2.80;;;14.20;99.90;;;;;;5021105;28;20214;-85
2022/09/02 03:11:22;;;;;;;3.13;2.83;;;14.20;99.90;;;;;;5033918;28;20270;-85
2022/09/02 03:13:50;;;;;;;4.80;2.93;;;14.20;99.90;;;;;;5018706;28;20218;-85
2022/09/02 03:16:18;;;;;;;3.77;2.80;;;14.20;99.90;;;;;;5023399;28;20235;-84
2022/09/02 03:18:48;;;;;;;5.33;3.00;;;14.20;99.90;;;;;;5025626;28;20260;-87
2022/09/02 03:21:16;;;;;;;3.30;3.00;;;14.80;99.90;;;;;;5017160;28;20270;-85
2022/09/02 03:23:49;;;;;;;3.47;2.80;;;14.50;99.90;;;;;;5018777;28;20242;-84
2022/09/02 03:26:19;;;;;;;3.33;3.03;;;14.20;99.90;;;;;;5022751;28;20774;-83
2022/09/02 03:28:48;;;;;;;3.57;2.80;;;14.20;99.90;;;;;;5018576;28;20327;-84
2022/09/02 03:31:20;;;;;;;2.97;2.77;;;14.20;99.90;;;;;;5016823;28;20218;-85
2022/09/02 03:33:57;;;;;;;5.73;3.17;;;14.20;99.90;;;;;;5018558;28;20246;-84
2022/09/02 03:36:34;;;;;;;3.90;2.97;;;14.20;99.90;;;;;;5022175;28;20219;-83
2022/09/02 03:39:04;;;;;;;4.03;3.33;;;14.20;99.90;;;;;;5022174;28;20252;-83
2022/09/02 03:41:36;;;;;;;4.40;3.00;;;13.80;99.90;;;;;;5012789;28;20210;-85
2022/09/02 03:44:04;;;;;;;6.87;3.13;;;14.20;99.90;;;;;;5020881;28;20218;-85
2022/09/02 03:46:32;;;;;;;4.10;3.07;;;14.20;99.90;;;;;;5021066;28;20927;-85
2022/09/02 03:49:00;;;;;;;3.90;3.10;;;14.10;99.90;;;;;;5022429;28;20230;-86
2022/09/02 03:51:31;;;;;;;4.10;2.90;;;13.80;99.90;;;;;;5018029;28;20227;-84
2022/09/02 03:54:01;;;;;;;3.17;2.87;;;14.20;99.90;;;;;;5021088;28;20237;-84
2022/09/02 03:56:29;;;;;;;2.90;2.70;;;14.20;99.90;;;;;;5017549;28;20215;-87
2022/09/02 03:58:56;;;;;;;5.10;3.50;;;15.00;99.90;;;;;;5020535;28;20653;-83
2022/09/02 04:01:27;;;;;;;4.63;3.20;;;14.80;99.90;;;;;;5020511;28;20207;-86
2022/09/02 04:04:00;;;;;;;4.87;3.43;;;14.80;99.90;;;;;;5020537;28;20202;-82
2022/09/02 04:06:30;;;;;;;4.07;3.10;;;14.20;99.90;;;;;;5014769;28;20297;-83
2022/09/02 04:09:02;;;;;;;3.40;3.07;;;14.50;99.90;;;;;;5015633;28;20258;-85
2022/09/02 04:11:32;;;;;;;2.97;2.57;;;;;;;;;;5016378;28;20210;-84
2022/09/02 04:14:00;;;;;;;3.00;2.77;;;14.30;99.90;;;;;;5020671;28;20210;-83
2022/09/02 04:16:29;;;;;;;5.30;3.37;;;14.70;99.90;;;;;;5023431;28;20250;-82
2022/09/02 04:19:00;;;;;;;2.93;2.70;;;14.40;99.90;;;;;;5023785;28;20256;-85
2022/09/02 04:21:30;;;;;;;4.70;3.10;;;14.40;99.90;;;;;;5023344;28;20209;-82
2022/09/02 04:23:58;;;;;;;6.10;3.00;;;14.40;99.90;;;;;;5023805;28;20213;-83
2022/09/02 04:26:28;;;;;;;3.87;3.40;;;14.40;99.90;;;;;;5040853;28;20226;-83
2022/09/02 04:28:59;;;;;;;3.63;3.00;;;14.40;99.90;;;;;;5021833;28;20216;-85
2022/09/02 04:31:30;;;;;;;4.83;3.10;;;14.70;99.90;;;;;;5038495;28;20236;-83
2022/09/02 04:34:01;;;;;;;2.97;2.70;;;14.40;99.90;;;;;;5037283;28;20212;-86
2022/09/02 04:36:29;;;;;;;6.57;3.70;;;14.40;99.90;;;;;;5027384;28;20236;-84
2022/09/02 04:38:58;;;;;;;4.17;2.87;;;14.40;99.90;;;;;;5042463;28;20643;-85
2022/09/02 04:41:29;;;;;;;3.70;2.73;;;14.30;99.90;;;;;;5043252;28;20209;-84
2022/09/02 04:43:57;;;;;;;7.13;3.00;;;15.20;99.90;;;;;;5024708;28;20663;-83
2022/09/02 04:46:25;;;;;;;12.93;3.00;;;14.50;99.90;;;;;;5026032;28;20206;-85
2022/09/02 04:49:02;;;;;;;5.77;2.70;;;14.40;99.90;;;;;;5040205;28;20269;-85
2022/09/02 04:51:31;;;;;;;4.20;2.80;;;15.10;99.90;;;;;;5032622;28;20223;-85
2022/09/02 04:53:59;;;;;;;3.37;3.00;;;14.50;99.90;;;;;;5026473;28;20678;-86
2022/09/02 04:56:28;;;;;;;3.80;2.90;;;14.70;99.90;;;;;;5036920;28;20260;-83
2022/09/02 04:58:56;;;;;;;4.60;2.63;;;14.70;99.90;;;;;;5024179;28;20240;-85
2022/09/02 05:01:29;;;;;;;5.53;2.90;;;14.60;99.90;;;;;;5020749;28;20210;-85
2022/09/02 05:04:00;;;;;;;3.30;2.90;;;15.10;99.90;;;;;;5022993;28;20267;-83
2022/09/02 05:06:31;;;;;;;5.77;3.03;;;15.40;99.90;;;;;;5036577;28;20222;-83
2022/09/02 05:09:03;;;;;;;3.90;2.80;;;14.50;99.90;;;;;;5029638;28;20226;-84
2022/09/02 05:11:34;;;;;;;3.93;2.50;;;15.00;99.90;;;;;;5022402;28;20221;-85
2022/09/02 05:14:08;;;;;;;3.03;2.70;;;15.10;99.90;;;;;;5017836;28;20209;-83
2022/09/02 05:16:39;;;;;;;5.17;3.23;;;15.00;99.90;;;;;;5018952;28;20636;-82
2022/09/02 05:19:12;;;;;;;8.67;2.70;;;15.10;99.90;;;;;;5019541;28;20215;-85
2022/09/02 05:21:48;;;;;;;4.50;2.73;;;14.40;99.90;;;;;;5017882;28;20225;-82
2022/09/02 05:24:17;;;;;;;8.13;2.60;;;;;;;;;;5017202;28;20225;-84
2022/09/02 05:26:53;;;;;;;4.03;3.00;;;14.80;99.90;;;;;;5020757;28;20249;-83
2022/09/02 05:29:23;;;;;;;6.23;2.90;;;15.00;99.90;;;;;;5024696;28;20203;-83
2022/09/02 05:31:50;;;;;;;3.23;2.40;;;15.50;99.90;;;;;;5017811;28;20211;-86
2022/09/02 05:34:34;;;;;;;5.60;3.07;;;15.30;99.90;;;;;;5016591;28;20230;-85
2022/09/02 05:37:27;;;;;;;;;;;;;;;;;;;;;
2022/09/02 05:40:21;;;;;;;4.03;2.77;;;16.10;99.90;;;;;;5010834;28;20210;-82
2022/09/02 05:42:57;;;;;;;2.83;2.50;;;15.30;99.90;;;;;;5027406;28;20216;-85
2022/09/02 05:45:33;;;;;;;5.97;2.83;;;15.20;99.90;;;;;;5033847;28;20262;-84
2022/09/02 05:49:04;;;;;;;5.03;2.73;;;15.80;99.90;;;;;;5048267;28;20218;-84
2022/09/02 05:50:52;;;;;;;5.57;2.73;;;15.40;99.90;;;;;;5034089;28;20190;-84
2022/09/02 05:53:32;;;;;;;3.10;2.80;;;;;;;;;;5035360;28;20215;-84
2022/09/02 05:56:05;;;;;;;6.50;2.83;;;15.50;99.90;;;;;;5033396;28;20214;-84
2022/09/02 05:58:34;;;;;;;4.57;2.63;;;16.00;99.90;;;;;;5035400;28;20242;-84
2022/09/02 06:01:08;;;;;;;6.13;2.83;;;15.40;99.90;;;;;;5030373;28;20213;-85
2022/09/02 06:03:37;;;;;;;5.23;2.77;;;15.70;99.90;;;;;;5068156;22;20639;-74
2022/09/02 06:06:04;;;;;;;4.67;2.30;;;15.80;99.90;;;;;;5076618;28;20248;-74
2022/09/02 06:08:33;;;;;;;8.13;1.90;;;16.00;99.90;;;;;;5065641;28;20676;-74
2022/09/02 06:11:02;;;;;;;3.33;1.70;;;16.00;99.90;;;;;;5078408;28;20437;-74
2022/09/02 06:13:30;;;;;;;2.93;1.70;;;16.40;99.90;;;;;;5072387;28;20200;-73
2022/09/02 06:15:57;;;;;;;3.73;1.90;;;16.40;99.90;;;;;;5086648;28;20319;-74
2022/09/02 06:18:24;;;;;;;6.97;1.97;;;16.40;99.90;;;;;;5086356;28;20211;-73
2022/09/02 06:20:52;;;;;;;2.23;1.50;;;16.60;99.90;;;;;;5085579;28;20199;-75
2022/09/02 06:23:19;;;;;;;3.67;1.40;;;16.60;99.90;;;;;;5077780;28;20582;-75
2022/09/02 06:25:48;;;;;;;3.53;1.73;;;16.80;99.90;;;;;;5084039;28;20204;-75
2022/09/02 06:28:15;;;;;;;4.67;1.50;;;17.80;99.90;;;;;;5072424;28;20694;-74
2022/09/02 06:30:44;;;;;;;10.40;2.03;;;17.00;99.90;;;;;;5081121;28;20633;-74
2022/09/02 06:33:11;;;;;;;7.53;1.70;;;17.30;99.90;;;;;;5078701;28;20297;-73
2022/09/02 06:35:41;;;;;;;5.70;1.63;;;17.40;99.90;;;;;;5082196;28;20219;-75
2022/09/02 06:38:09;;;;;;;4.30;1.50;;;17.90;99.90;;;;;;5061967;28;20216;-74
2022/09/02 06:40:45;;;;;;;4.90;1.63;;;17.70;99.90;;;;;;5075387;28;20236;-73
2022/09/02 06:43:13;;;;;;;3.78;1.45;;;17.70;99.90;;;;;;5075507;28;20208;-75
2022/09/02 06:45:40;;;;;;;5.88;1.50;;;;;;;;;;5067475;28;20691;-74
2022/09/02 06:48:08;;;;;;;7.63;1.40;;;18.00;99.90;;;;;;5085762;28;20206;-74
2022/09/02 06:50:43;;;;;;;4.18;1.58;;;18.30;99.90;;;;;;5079396;28;20210;-70
2022/09/02 06:53:11;;;;;;;6.07;1.50;;;18.60;99.90;;;;;;5076467;28;20220;-70
2022/09/02 06:55:41;;;;;;;4.10;1.75;;;18.60;99.90;;;;;;5077124;28;20224;-70
2022/09/02 06:58:09;;;;;;;3.08;1.40;;;18.80;99.90;;;;;;5074991;28;20216;-68
2022/09/02 07:00:37;;;;;;;6.18;1.60;;;18.60;99.90;;;;;;5065113;28;20250;-72
2022/09/02 07:06:08;;;;;;;3.97;1.60;;;18.90;99.90;;;;;;5075745;28;20545;-73
2022/09/02 07:08:37;;;;;;;5.00;1.50;;;19.00;99.90;;;;;;5062324;28;20956;-71
2022/09/02 07:11:05;;;;;;;6.05;1.80;;;19.00;99.90;;;;;;5078329;28;20223;-72
2022/09/02 07:13:33;;;;;;;4.18;1.13;;;19.00;99.90;;;;;;5061010;28;20204;-72
2022/09/02 07:16:00;;;;;;;4.07;1.20;;;19.20;99.90;;;;;;5077251;28;20343;-72
2022/09/02 07:18:27;;;;;;;4.53;1.67;;;19.30;99.90;;;;;;5075710;28;20212;-72
2022/09/02 07:20:54;;;;;;;6.18;1.63;;;19.30;99.90;;;;;;5077276;28;20204;-71
2022/09/02 07:23:21;;;;;;;8.25;1.83;;;19.10;99.90;;;;;;5078462;28;20212;-73
2022/09/02 07:25:48;;;;;;;3.65;1.40;;;19.20;99.90;;;;;;5078676;28;20200;-72
2022/09/02 07:28:16;;;;;;;3.88;1.25;;;19.20;99.90;;;;;;5075568;28;20254;-73
2022/09/02 07:30:43;;;;;;;5.93;1.30;;;19.40;99.90;;;;;;5085375;28;20218;-73
2022/09/02 07:33:12;;;;;;;3.78;1.45;;;19.40;99.90;;;;;;5070484;28;20591;-74
2022/09/02 07:35:41;;;;;;;7.28;1.40;;;19.50;99.90;;;;;;5083981;28;20227;-72
2022/09/02 07:38:09;;;;;;;3.08;1.20;;;19.60;99.90;;;;;;5085439;28;21031;-73
2022/09/02 07:40:38;;;;;;;4.90;1.10;;;19.70;99.90;;;;;;5064474;28;20215;-72
2022/09/02 07:43:07;;;;;;;4.55;1.60;;;19.90;99.90;;;;;;5079427;28;20302;-72
2022/09/02 07:45:35;;;;;;;2.00;1.10;;;20.00;99.90;;;;;;5066661;28;20235;-73
2022/09/02 07:48:07;;;;;;;4.65;1.40;;;20.10;99.90;;;;;;5079319;28;20208;-73
2022/09/02 07:50:36;;;;;;;2.55;1.08;;;20.20;99.90;;;;;;5086864;28;20247;-72
2022/09/02 07:53:05;;;;;;;1.65;1.27;;;20.50;99.90;;;;;;5065612;28;20219;-72
2022/09/02 07:55:35;;;;;;;3.40;1.13;;;20.90;99.90;;;;;;5082000;28;20239;-73
2022/09/02 07:58:03;;;;;;;2.65;1.23;;;21.10;99.90;;;;;;5081040;28;20238;-72
2022/09/02 08:00:30;;;;;;;2.97;1.30;;;21.20;99.90;;;;;;5070802;28;20219;-71
2022/09/02 08:02:58;;;;;;;6.63;1.75;;;21.30;99.90;;;;;;5081858;28;20445;-73
2022/09/02 08:05:26;;;;;;;2.22;1.20;;;21.20;99.90;;;;;;5067236;28;20567;-72
2022/09/02 08:07:53;;;;;;;6.70;1.40;;;21.20;99.90;;;;;;5083482;28;20256;-72
2022/09/02 08:10:20;;;;;;;3.63;1.67;;;21.20;99.90;;;;;;5084181;28;20371;-73
2022/09/02 08:12:48;;;;;;;6.35;1.70;;;21.20;99.90;;;;;;5082661;28;20209;-74
2022/09/02 08:15:15;;;;;;;6.63;1.60;;;21.30;99.90;;;;;;5086628;28;20215;-75
2022/09/02 08:17:43;;;;;;;1.98;1.45;;;21.20;99.90;;;;;;5082974;28;20240;-73
2022/09/02 08:20:12;;;;;;;6.60;1.40;;;21.20;99.90;;;;;;5086198;28;20208;-73
2022/09/02 08:22:40;;;;;;;3.38;1.83;;;20.20;99.90;;;;;;5084363;28;20269;-73
2022/09/02 08:25:08;;;;;;;7.53;1.20;;;21.00;99.90;;;;;;5085844;28;20210;-74
2022/09/02 08:27:36;;;;;;;3.90;1.75;;;21.10;99.90;;;;;;5085653;28;20204;-73
2022/09/02 08:30:05;;;;;;;5.75;1.75;;;21.20;99.90;;;;;;5067673;28;20481;-73
2022/09/02 08:32:34;;;;;;;3.42;1.38;;;21.40;99.90;;;;;;5064829;28;20212;-75
2022/09/02 08:35:03;;;;;;;5.30;1.70;;;21.40;99.90;;;;;;5070451;28;20199;-73
2022/09/02 08:37:32;;;;;;;4.03;1.90;;;21.40;99.70;;;;;;5082835;28;20246;-74
2022/09/02 08:40:02;;;;;;;4.90;1.73;;;21.30;99.60;;;;;;5067098;28;20197;-74
2022/09/02 08:42:34;;;;;;;2.17;1.55;;;21.30;99.60;;;;;;5084306;28;20239;-74
2022/09/02 08:45:16;;;;;;;3.60;1.50;;;21.20;99.90;;;;;;5080644;28;20255;-74
2022/09/02 08:47:49;;;;;;;7.05;1.67;;;21.20;99.90;;;;;;5070234;28;20215;-74
2022/09/02 08:50:17;;;;;;;4.47;1.45;;;21.40;99.90;;;;;;5081065;28;20220;-73
2022/09/02 08:53:08;;;;;;;7.93;1.90;;;21.60;99.90;;;;;;5062295;28;20224;-74
2022/09/02 08:55:49;;;;;;;3.03;1.40;;;22.20;99.90;;;;;;5068847;28;20671;-74
2022/09/02 08:58:20;;;;;;;5.30;1.63;;;22.90;99.00;;;;;;5079409;28;20273;-76
2022/09/02 09:01:04;;;;;;;7.65;2.00;;;23.60;97.70;;;;;;5079291;28;20210;-75
2022/09/02 09:04:06;;;;;;;5.30;1.40;;;24.10;97.20;;;;;;5085076;28;20244;-75
2022/09/02 09:07:01;;;;;;;4.40;1.70;;;24.70;95.10;;;;;;5080738;28;20621;-75
2022/09/02 09:10:00;;;;;;;3.92;1.85;;;25.00;94.50;;;;;;5083049;28;20211;-74
2022/09/02 09:12:39;;;;;;;9.18;1.80;;;25.30;93.90;;;;;;5059619;28;20213;-76
2022/09/02 09:15:28;;;;;;;6.55;1.60;;;25.80;93.10;;;;;;5083783;28;20637;-75
2022/09/02 09:17:58;;;;;;;6.85;1.50;;;25.70;92.00;;;;;;5082294;28;20288;-75
2022/09/02 09:20:28;;;;;;;3.92;1.45;;;25.70;91.50;;;;;;5080174;28;20222;-76
2022/09/02 09:22:57;;;;;;;5.05;1.60;;;25.70;91.40;;;;;;5063494;28;20299;-76
2022/09/02 09:25:31;;;;;;;4.30;1.95;;;25.70;91.00;;;;;;5086444;28;20219;-76
2022/09/02 09:27:59;;;;;;;2.13;1.50;;;25.70;90.80;;;;;;5083539;28;20214;-75
2022/09/02 09:30:27;;;;;;;2.80;1.50;;;25.70;90.60;;;;;;5079669;28;20684;-75
2022/09/02 09:32:59;;;;;;;3.03;1.70;;;25.70;90.40;;;;;;5083632;28;20216;-75
2022/09/02 09:35:27;;;;;;;1.77;1.52;;;25.60;90.40;;;;;;5080555;28;20232;-75
2022/09/02 09:37:55;;;;;;;5.35;1.60;;;25.60;90.70;;;;;;5084154;28;20238;-76
2022/09/02 09:40:40;;;;;;;3.38;1.67;;;25.70;90.60;;;;;;5062652;28;20207;-75
2022/09/02 09:43:13;;;;;;;3.88;1.40;;;25.60;90.70;;;;;;5078933;28;20232;-75
2022/09/02 09:45:50;;;;;;;7.20;2.20;;;25.70;90.60;;;;;;5064051;28;20802;-76
2022/09/02 09:48:28;;;;;;;3.33;2.20;;;25.80;90.30;;;;;;5084102;28;20645;-75
2022/09/02 09:50:55;;;;;;;4.07;1.95;;;25.90;90.00;;;;;;5085190;28;20208;-72
2022/09/02 09:53:24;;;;;;;4.20;2.05;;;25.90;89.40;;;;;;5069991;28;20621;-71
2022/09/02 09:56:06;;;;;;;3.05;1.90;;;25.90;89.10;;;;;;5081943;28;20200;-75
2022/09/02 09:58:40;;;;;;;3.08;1.88;;;25.90;88.80;;;;;;5078883;28;20222;-76
2022/09/02 10:01:33;;;;;;;5.60;1.90;;;25.90;89.40;;;;;;5082297;28;20211;-76
2022/09/02 10:04:09;;;;;;;2.88;1.92;;;26.10;88.70;;;;;;5074606;28;20269;-75
2022/09/02 10:06:56;;;;;;;2.40;1.83;;;26.30;88.20;;;;;;5084701;28;20747;-77
2022/09/02 10:09:34;;;;;;;2.60;2.00;;;26.30;87.70;;;;;;5081279;28;20215;-76
2022/09/02 10:12:06;;;;;;;5.18;1.98;;;;;;;;;;5083806;28;20302;-73
2022/09/02 10:14:44;;;;;;;4.47;1.80;;;26.40;86.70;;;;;;5084053;28;20203;-75
2022/09/02 10:17:54;;;;;;;4.22;1.83;;;26.40;86.90;;;;;;5079533;28;20226;-75
2022/09/02 10:20:31;;;;;;;2.85;2.10;;;26.40;87.20;;;;;;5079082;28;20365;-76
2022/09/02 10:23:35;;;;;;;6.03;2.10;;;26.30;87.00;;;;;;5080976;28;20219;-76
2022/09/02 10:26:25;;;;;;;3.15;1.80;;;26.40;86.90;;;;;;5052326;28;20218;-75
2022/09/02 10:29:12;;;;;;;4.55;2.05;;;26.50;86.90;;;;;;5067530;28;20699;-76
2022/09/02 10:32:09;;;;;;;4.75;2.10;;;26.50;86.70;;;;;;5081850;28;20220;-77
2022/09/02 10:34:55;;;;;;;4.43;2.00;;;26.60;86.80;;;;;;5083926;28;20211;-75
2022/09/02 10:37:23;;;;;;;3.33;2.03;;;26.60;86.40;;;;;;5077784;28;20243;-75
2022/09/02 10:40:00;;;;;;;3.60;1.95;;;26.70;86.30;;;;;;5074941;28;20216;-76
2022/09/02 10:42:34;;;;;;;6.18;2.17;;;26.70;85.90;;;;;;5082511;28;20215;-76
2022/09/02 10:45:28;;;;;;;4.10;2.22;;;26.80;85.60;;;;;;5065766;28;20212;-75
2022/09/02 10:48:34;;;;;;;6.15;2.15;;;26.90;85.00;;;;;;5084728;28;20219;-76
2022/09/02 10:51:24;;;;;;;2.30;2.00;;;26.90;84.70;;;;;;5061403;28;20200;-76
2022/09/02 10:53:58;;;;;;;5.78;2.70;;;26.80;84.80;;;;;;5062369;28;20409;-75
2022/09/02 10:56:34;;;;;;;11.70;2.90;;;26.70;84.50;;;;;;5082056;28;20281;-76
2022/09/02 10:59:17;;;;;;;5.38;2.28;;;26.70;84.30;;;;;;5082146;28;20748;-76
2022/09/02 11:01:53;;;;;;;10.68;2.80;;;26.70;84.70;;;;;;5085239;28;20617;-76
2022/09/02 11:04:36;;;;;;;4.97;2.15;;;26.80;85.00;;;;;;5078090;28;20293;-71
2022/09/02 11:07:09;;;;;;;8.00;2.80;;;26.90;84.70;;;;;;5065705;28;20219;-81
2022/09/02 11:10:02;;;;;;;5.72;2.40;;;27.00;84.30;;;;;;5085797;28;20204;-80
2022/09/02 11:12:44;;;;;;;4.13;2.50;;;27.10;84.50;;;;;;5064369;28;20212;-79
2022/09/02 11:15:21;;;;;;;5.55;2.05;;;27.20;85.40;;;;;;5082040;28;20287;-82
2022/09/02 11:18:16;;;;;;;4.07;2.40;;;27.20;84.00;;;;;;5085107;28;20219;-79
2022/09/02 11:20:51;;;;;;;3.28;2.60;;;27.30;83.50;;;;;;5068389;28;20599;-71
2022/09/02 11:23:46;;;;;;;7.45;2.80;;;27.40;83.40;;;;;;5083727;28;20204;-77
2022/09/02 11:26:37;;;;;;;3.65;2.67;;;27.50;82.70;;;;;;5077425;28;20216;-82
2022/09/02 11:29:31;;;;;;;2.88;2.55;;;27.50;82.10;;;;;;5064849;28;20214;-77
2022/09/02 11:32:09;;;;;;;4.90;3.00;;;27.50;81.20;;;;;;5080411;28;20683;-77
2022/09/02 11:34:41;;;;;;;4.35;2.50;;;27.50;81.30;;;;;;5081983;28;20218;-82
2022/09/02 11:37:13;;;;;;;6.35;2.45;;;27.50;81.00;;;;;;5080681;28;20239;-75
2022/09/02 11:39:53;;;;;;;2.42;2.22;;;27.60;80.30;;;;;;5065268;28;20670;-77
2022/09/02 11:43:01;;;;;;;5.10;2.60;;;27.60;79.70;;;;;;5065332;28;20248;-79
2022/09/02 11:45:40;;;;;;;2.35;2.15;;;27.90;79.00;;;;;;5080327;28;20664;-79
2022/09/02 11:48:49;;;;;;;2.42;2.22;;;28.00;77.40;;;;;;5076440;28;20200;-79
2022/09/02 11:51:25;;;;;;;4.53;2.10;;;28.10;77.90;;;;;;5083756;28;20224;-79
2022/09/02 11:53:55;;;;;;;4.00;2.70;;;28.00;76.30;;;;;;5082211;28;20664;-77
2022/09/02 11:56:27;;;;;;;2.45;1.90;;;28.00;75.90;;;;;;5066247;28;20672;-77
2022/09/02 11:58:54;;;;;;;4.70;2.22;;;28.10;75.40;;;;;;5078255;28;20209;-78
2022/09/02 12:01:29;;;;;;;6.82;2.05;;;28.00;75.20;;;;;;5083701;28;20196;-77
2022/09/02 12:04:10;;;;;;;3.65;2.05;;;27.80;75.20;;;;;;5086934;28;20691;-77
2022/09/02 12:07:06;;;;;;;3.40;2.28;;;27.70;75.20;;;;;;5085995;28;20243;-78
2022/09/02 12:09:49;;;;;;;3.33;2.05;;;27.70;75.40;;;;;;5082231;28;20203;-77
2022/09/02 12:12:35;;;;;;;6.75;2.70;;;27.80;75.50;;;;;;5085640;28;20207;-78
2022/09/02 12:15:05;;;;;;;3.03;2.30;;;27.90;76.00;;;;;;5077849;28;20346;-77
2022/09/02 12:18:05;;;;;;;2.65;2.08;;;27.90;76.00;;;;;;5076257;28;20684;-77
2022/09/02 12:20:40;;;;;;;6.03;2.17;;;27.80;74.70;;;;;;5091880;28;20207;-76
2022/09/02 12:23:08;;;;;;;2.53;2.10;;;27.90;74.90;;;;;;5077263;28;20252;-77
2022/09/02 12:25:48;;;;;;;2.17;1.92;;;28.00;73.70;;;;;;5075439;28;20218;-78
2022/09/02 12:28:29;;;;;;;2.20;2.00;;;28.30;72.40;;;;;;5081640;28;20204;-78
2022/09/02 12:31:00;;;;;;;2.88;1.75;;;28.60;71.60;;;;;;5081767;28;20281;-77
2022/09/02 12:33:32;;;;;;;3.78;2.10;;;28.80;71.00;;;;;;5082234;28;20208;-78
2022/09/02 12:35:59;;;;;;;4.40;2.38;;;28.90;70.30;;;;;;5065868;28;20207;-77
2022/09/02 12:38:39;;;;;;;3.83;2.40;;;28.80;69.90;;;;;;5088762;28;20220;-77
2022/09/02 12:41:08;;;;;;;2.45;2.00;;;28.70;69.20;;;;;;5067034;28;20200;-76
2022/09/02 12:43:45;;;;;;;3.40;2.15;;;28.60;69.30;;;;;;5086746;28;20659;-77
2022/09/02 12:46:16;;;;;;;5.82;2.28;;;28.60;69.30;;;;;;5085916;28;20566;-76
2022/09/02 12:49:10;;;;;;;3.28;2.28;;;28.50;68.10;;;;;;5079859;28;20237;-78
2022/09/02 12:51:50;;;;;;;2.38;2.17;;;28.40;68.10;;;;;;5081160;28;20230;-78
2022/09/02 12:54:23;;;;;;;6.97;2.30;;;28.20;67.20;;;;;;5077356;28;20207;-78
2022/09/02 12:56:51;;;;;;;3.22;2.00;;;28.20;67.20;;;;;;5080645;28;20224;-77
2022/09/02 12:59:27;;;;;;;3.40;1.90;;;28.00;67.20;;;;;;5081496;28;20217;-78
2022/09/02 13:02:05;;;;;;;6.45;2.63;;;28.00;67.10;;;;;;5071837;28;20662;-77
2022/09/02 13:04:43;;;;;;;3.17;2.08;;;27.90;66.90;;;;;;5084095;28;20420;-76
2022/09/02 13:07:45;;;;;;;5.78;2.10;;;27.90;68.00;;;;;;5085001;28;20246;-78
2022/09/02 13:10:50;;;;;;;4.25;1.90;;;27.90;68.20;;;;;;5066722;28;20223;-76
2022/09/02 13:13:36;;;;;;;3.00;2.10;;;28.00;67.70;;;;;;5087480;28;20265;-78
2022/09/02 13:16:09;;;;;;;4.57;1.75;;;28.00;66.80;;;;;;5067233;28;20203;-78
2022/09/02 13:18:59;;;;;;;7.85;2.42;;;28.00;66.40;;;;;;5069647;28;20226;-77
2022/09/02 13:21:48;;;;;;;2.65;1.92;;;28.10;65.80;;;;;;5079632;28;20224;-77
2022/09/02 13:24:39;;;;;;;3.05;1.85;;;28.10;64.80;;;;;;5057748;28;20299;-76
2022/09/02 13:27:46;;;;;;;2.97;2.17;;;28.00;64.20;;;;;;5061104;28;20295;-76
2022/09/02 13:30:15;;;;;;;1.80;1.70;;;27.90;63.80;;;;;;5075552;28;20236;-77